sensor_id;sensor_type;location;lat;lon;timestamp;P1;durP1;ratioP1;P2;durP2;ratioP2
70780;SDS011;59514;48.810;2.134;2022-09-06T00:02:02;5.60;;;2.80;;
70780;SDS011;59514;48.810;2.134;2022-09-06T00:04:27;4.28;;;2.58;;
70780;SDS011;59514;48.810;2.134;2022-09-06T00:06:53;4.50;;;3.08;;
70780;SDS011;59514;48.810;2.134;2022-09-06T00:09:18;4.33;;;2.50;;
70780;SDS011;59514;48.810;2.134;2022-09-06T00:11:43;3.10;;;2.70;;
70780;SDS011;59514;48.810;2.134;2022-09-06T00:14:09;4.00;;;2.28;;
70780;SDS011;59514;48.810;2.134;2022-09-06T00:16:34;4.30;;;2.60;;
70780;SDS011;59514;48.810;2.134;2022-09-06T00:18:59;3.22;;;2.50;;
70780;SDS011;59514;48.810;2.134;2022-09-06T00:21:27;3.50;;;2.05;;
70780;SDS011;59514;48.810;2.134;2022-09-06T00:23:54;3.30;;;2.28;;
70780;SDS011;59514;48.810;2.134;2022-09-06T00:26:20;3.35;;;2.13;;
70780;SDS011;59514;48.810;2.134;2022-09-06T00:28:46;3.83;;;2.38;;
70780;SDS011;59514;48.810;2.134;2022-09-06T00:31:16;5.00;;;2.17;;
70780;SDS011;59514;48.810;2.134;2022-09-06T00:33:43;2.58;;;2.38;;
70780;SDS011;59514;48.810;2.134;2022-09-06T00:36:08;3.83;;;2.15;;
70780;SDS011;59514;48.810;2.134;2022-09-06T00:38:35;3.60;;;2.50;;
70780;SDS011;59514;48.810;2.134;2022-09-06T00:41:02;3.25;;;2.30;;
70780;SDS011;59514;48.810;2.134;2022-09-06T00:43:28;2.65;;;2.30;;
70780;SDS011;59514;48.810;2.134;2022-09-06T00:45:53;5.43;;;2.22;;
70780;SDS011;59514;48.810;2.134;2022-09-06T00:48:19;3.03;;;2.40;;
70780;SDS011;59514;48.810;2.134;2022-09-06T00:50:47;3.83;;;2.25;;
70780;SDS011;59514;48.810;2.134;2022-09-06T00:53:15;3.97;;;2.38;;
70780;SDS011;59514;48.810;2.134;2022-09-06T00:55:42;3.25;;;2.20;;
70780;SDS011;59514;48.810;2.134;2022-09-06T00:58:08;4.82;;;2.72;;
70780;SDS011;59514;48.810;2.134;2022-09-06T01:00:33;3.97;;;2.10;;
70780;SDS011;59514;48.810;2.134;2022-09-06T01:02:59;3.97;;;2.40;;
70780;SDS011;59514;48.810;2.134;2022-09-06T01:05:28;5.22;;;2.38;;
70780;SDS011;59514;48.810;2.134;2022-09-06T01:08:23;6.50;;;2.60;;
70780;SDS011;59514;48.810;2.134;2022-09-06T01:14:05;4.55;;;2.50;;
70780;SDS011;59514;48.810;2.134;2022-09-06T01:30:37;3.63;;;2.50;;
70780;SDS011;59514;48.810;2.134;2022-09-06T01:33:24;3.80;;;2.25;;
70780;SDS011;59514;48.810;2.134;2022-09-06T01:36:00;3.45;;;2.38;;
70780;SDS011;59514;48.810;2.134;2022-09-06T01:38:29;5.90;;;2.88;;
70780;SDS011;59514;48.810;2.134;2022-09-06T01:40:54;3.40;;;2.22;;
70780;SDS011;59514;48.810;2.134;2022-09-06T01:43:25;2.97;;;2.42;;
70780;SDS011;59514;48.810;2.134;2022-09-06T01:57:08;4.43;;;2.13;;
70780;SDS011;59514;48.810;2.134;2022-09-06T02:02:19;4.17;;;2.50;;
70780;SDS011;59514;48.810;2.134;2022-09-06T02:04:56;3.00;;;2.20;;
70780;SDS011;59514;48.810;2.134;2022-09-06T02:07:26;3.60;;;2.28;;
70780;SDS011;59514;48.810;2.134;2022-09-06T02:09:54;3.88;;;2.70;;
70780;SDS011;59514;48.810;2.134;2022-09-06T02:12:24;3.83;;;2.25;;
70780;SDS011;59514;48.810;2.134;2022-09-06T02:17:29;4.53;;;2.88;;
70780;SDS011;59514;48.810;2.134;2022-09-06T02:22:27;4.68;;;2.88;;
70780;SDS011;59514;48.810;2.134;2022-09-06T02:24:55;4.70;;;2.63;;
70780;SDS011;59514;48.810;2.134;2022-09-06T02:27:24;4.80;;;2.60;;
70780;SDS011;59514;48.810;2.134;2022-09-06T02:29:50;4.70;;;2.50;;
70780;SDS011;59514;48.810;2.134;2022-09-06T02:32:17;4.82;;;3.17;;
70780;SDS011;59514;48.810;2.134;2022-09-06T02:34:45;3.05;;;2.72;;
70780;SDS011;59514;48.810;2.134;2022-09-06T02:37:11;5.35;;;2.88;;
70780;SDS011;59514;48.810;2.134;2022-09-06T02:39:38;4.20;;;2.80;;
70780;SDS011;59514;48.810;2.134;2022-09-06T02:42:03;4.57;;;2.38;;
70780;SDS011;59514;48.810;2.134;2022-09-06T02:44:30;2.85;;;2.40;;
70780;SDS011;59514;48.810;2.134;2022-09-06T02:46:56;3.03;;;2.53;;
70780;SDS011;59514;48.810;2.134;2022-09-06T02:49:22;2.97;;;2.63;;
70780;SDS011;59514;48.810;2.134;2022-09-06T02:51:47;4.97;;;2.92;;
70780;SDS011;59514;48.810;2.134;2022-09-06T02:54:13;5.35;;;2.72;;
70780;SDS011;59514;48.810;2.134;2022-09-06T02:56:38;4.18;;;2.40;;
70780;SDS011;59514;48.810;2.134;2022-09-06T02:59:04;3.00;;;2.65;;
70780;SDS011;59514;48.810;2.134;2022-09-06T03:01:29;2.53;;;2.28;;
70780;SDS011;59514;48.810;2.134;2022-09-06T03:03:56;5.30;;;2.42;;
70780;SDS011;59514;48.810;2.134;2022-09-06T03:06:21;2.95;;;2.65;;
70780;SDS011;59514;48.810;2.134;2022-09-06T03:08:47;3.20;;;2.53;;
70780;SDS011;59514;48.810;2.134;2022-09-06T03:11:12;3.78;;;2.67;;
70780;SDS011;59514;48.810;2.134;2022-09-06T03:13:38;2.85;;;2.60;;
70780;SDS011;59514;48.810;2.134;2022-09-06T03:16:03;3.70;;;2.60;;
70780;SDS011;59514;48.810;2.134;2022-09-06T03:18:29;2.72;;;2.53;;
70780;SDS011;59514;48.810;2.134;2022-09-06T03:20:56;3.63;;;2.40;;
70780;SDS011;59514;48.810;2.134;2022-09-06T03:23:22;3.08;;;2.58;;
70780;SDS011;59514;48.810;2.134;2022-09-06T03:25:49;2.83;;;2.47;;
70780;SDS011;59514;48.810;2.134;2022-09-06T03:28:15;4.97;;;3.00;;
70780;SDS011;59514;48.810;2.134;2022-09-06T03:30:43;2.95;;;2.60;;
70780;SDS011;59514;48.810;2.134;2022-09-06T03:33:10;3.25;;;2.95;;
70780;SDS011;59514;48.810;2.134;2022-09-06T03:35:35;2.88;;;2.55;;
70780;SDS011;59514;48.810;2.134;2022-09-06T03:38:00;3.53;;;2.97;;
70780;SDS011;59514;48.810;2.134;2022-09-06T03:40:26;4.30;;;2.60;;
70780;SDS011;59514;48.810;2.134;2022-09-06T03:42:51;5.63;;;3.00;;
70780;SDS011;59514;48.810;2.134;2022-09-06T03:45:16;4.60;;;2.58;;
70780;SDS011;59514;48.810;2.134;2022-09-06T03:47:42;3.67;;;2.70;;
70780;SDS011;59514;48.810;2.134;2022-09-06T03:50:07;4.30;;;2.65;;
70780;SDS011;59514;48.810;2.134;2022-09-06T03:52:33;4.03;;;2.60;;
70780;SDS011;59514;48.810;2.134;2022-09-06T03:54:58;3.28;;;2.85;;
70780;SDS011;59514;48.810;2.134;2022-09-06T03:57:23;4.30;;;2.80;;
70780;SDS011;59514;48.810;2.134;2022-09-06T03:59:49;4.60;;;3.15;;
70780;SDS011;59514;48.810;2.134;2022-09-06T04:02:14;4.65;;;2.75;;
70780;SDS011;59514;48.810;2.134;2022-09-06T04:04:39;3.17;;;2.35;;
70780;SDS011;59514;48.810;2.134;2022-09-06T04:07:04;3.08;;;2.60;;
70780;SDS011;59514;48.810;2.134;2022-09-06T04:09:30;3.35;;;2.70;;
70780;SDS011;59514;48.810;2.134;2022-09-06T04:11:55;3.00;;;2.67;;
70780;SDS011;59514;48.810;2.134;2022-09-06T04:14:20;5.60;;;2.90;;
70780;SDS011;59514;48.810;2.134;2022-09-06T04:16:46;4.53;;;2.95;;
70780;SDS011;59514;48.810;2.134;2022-09-06T04:19:11;3.63;;;2.80;;
70780;SDS011;59514;48.810;2.134;2022-09-06T04:21:37;5.28;;;2.28;;
70780;SDS011;59514;48.810;2.134;2022-09-06T04:24:02;5.45;;;2.80;;
70780;SDS011;59514;48.810;2.134;2022-09-06T04:26:28;4.15;;;2.80;;
70780;SDS011;59514;48.810;2.134;2022-09-06T04:28:53;3.72;;;2.67;;
70780;SDS011;59514;48.810;2.134;2022-09-06T04:31:19;3.53;;;2.50;;
70780;SDS011;59514;48.810;2.134;2022-09-06T04:33:44;3.85;;;2.95;;
70780;SDS011;59514;48.810;2.134;2022-09-06T04:36:10;4.95;;;2.70;;
70780;SDS011;59514;48.810;2.134;2022-09-06T04:38:37;5.13;;;2.90;;
70780;SDS011;59514;48.810;2.134;2022-09-06T04:41:04;5.30;;;2.80;;
70780;SDS011;59514;48.810;2.134;2022-09-06T04:43:30;5.53;;;3.30;;
70780;SDS011;59514;48.810;2.134;2022-09-06T04:46:01;8.70;;;2.90;;
70780;SDS011;59514;48.810;2.134;2022-09-06T04:48:27;3.15;;;2.85;;
70780;SDS011;59514;48.810;2.134;2022-09-06T04:50:52;3.33;;;2.88;;
70780;SDS011;59514;48.810;2.134;2022-09-06T04:53:18;4.40;;;2.88;;
70780;SDS011;59514;48.810;2.134;2022-09-06T04:55:43;5.82;;;3.10;;
70780;SDS011;59514;48.810;2.134;2022-09-06T04:58:09;4.78;;;3.13;;
70780;SDS011;59514;48.810;2.134;2022-09-06T05:00:34;3.65;;;3.10;;
70780;SDS011;59514;48.810;2.134;2022-09-06T05:03:02;4.78;;;2.72;;
70780;SDS011;59514;48.810;2.134;2022-09-06T05:05:27;4.07;;;2.85;;
70780;SDS011;59514;48.810;2.134;2022-09-06T05:07:53;4.82;;;3.38;;
70780;SDS011;59514;48.810;2.134;2022-09-06T05:10:19;3.38;;;2.72;;
70780;SDS011;59514;48.810;2.134;2022-09-06T05:12:48;5.38;;;2.65;;
70780;SDS011;59514;48.810;2.134;2022-09-06T05:15:15;3.80;;;2.90;;
70780;SDS011;59514;48.810;2.134;2022-09-06T05:17:41;4.93;;;2.85;;
70780;SDS011;59514;48.810;2.134;2022-09-06T05:20:07;3.95;;;3.45;;
70780;SDS011;59514;48.810;2.134;2022-09-06T05:22:34;4.47;;;2.75;;
70780;SDS011;59514;48.810;2.134;2022-09-06T05:24:59;5.97;;;3.42;;
70780;SDS011;59514;48.810;2.134;2022-09-06T05:27:24;3.37;;;2.70;;
70780;SDS011;59514;48.810;2.134;2022-09-06T05:29:49;4.20;;;3.20;;
70780;SDS011;59514;48.810;2.134;2022-09-06T05:32:15;4.72;;;3.17;;
70780;SDS011;59514;48.810;2.134;2022-09-06T05:34:40;4.78;;;3.40;;
70780;SDS011;59514;48.810;2.134;2022-09-06T05:37:05;5.72;;;3.33;;
70780;SDS011;59514;48.810;2.134;2022-09-06T05:39:31;6.53;;;3.70;;
70780;SDS011;59514;48.810;2.134;2022-09-06T05:41:56;4.32;;;3.53;;
70780;SDS011;59514;48.810;2.134;2022-09-06T05:44:22;4.78;;;3.80;;
70780;SDS011;59514;48.810;2.134;2022-09-06T05:46:48;7.50;;;3.70;;
70780;SDS011;59514;48.810;2.134;2022-09-06T05:49:13;7.35;;;3.88;;
70780;SDS011;59514;48.810;2.134;2022-09-06T05:51:39;4.32;;;3.47;;
70780;SDS011;59514;48.810;2.134;2022-09-06T05:54:05;4.45;;;3.40;;
70780;SDS011;59514;48.810;2.134;2022-09-06T05:56:31;5.93;;;3.60;;
70780;SDS011;59514;48.810;2.134;2022-09-06T05:58:57;6.22;;;3.60;;
70780;SDS011;59514;48.810;2.134;2022-09-06T06:01:23;4.93;;;3.90;;
70780;SDS011;59514;48.810;2.134;2022-09-06T06:03:57;6.63;;;3.90;;
70780;SDS011;59514;48.810;2.134;2022-09-06T06:06:25;5.60;;;4.00;;
70780;SDS011;59514;48.810;2.134;2022-09-06T06:08:52;7.78;;;3.50;;
70780;SDS011;59514;48.810;2.134;2022-09-06T06:11:18;4.55;;;4.03;;
70780;SDS011;59514;48.810;2.134;2022-09-06T06:13:44;3.67;;;3.15;;
70780;SDS011;59514;48.810;2.134;2022-09-06T06:16:13;7.55;;;4.07;;
70780;SDS011;59514;48.810;2.134;2022-09-06T06:18:41;6.15;;;3.55;;
70780;SDS011;59514;48.810;2.134;2022-09-06T06:23:33;6.80;;;3.70;;
70780;SDS011;59514;48.810;2.134;2022-09-06T06:25:59;6.13;;;3.63;;
70780;SDS011;59514;48.810;2.134;2022-09-06T06:28:24;4.35;;;3.53;;
70780;SDS011;59514;48.810;2.134;2022-09-06T06:30:49;5.40;;;2.78;;
70780;SDS011;59514;48.810;2.134;2022-09-06T06:33:15;6.13;;;3.38;;
70780;SDS011;59514;48.810;2.134;2022-09-06T06:35:40;4.80;;;3.53;;
70780;SDS011;59514;48.810;2.134;2022-09-06T06:38:05;5.40;;;3.65;;
70780;SDS011;59514;48.810;2.134;2022-09-06T06:40:31;5.30;;;3.20;;
70780;SDS011;59514;48.810;2.134;2022-09-06T06:42:57;5.00;;;2.90;;
70780;SDS011;59514;48.810;2.134;2022-09-06T06:45:22;4.70;;;3.20;;
70780;SDS011;59514;48.810;2.134;2022-09-06T06:47:48;6.03;;;3.47;;
70780;SDS011;59514;48.810;2.134;2022-09-06T06:50:14;6.53;;;3.20;;
70780;SDS011;59514;48.810;2.134;2022-09-06T06:52:40;7.05;;;3.80;;
70780;SDS011;59514;48.810;2.134;2022-09-06T06:55:05;5.20;;;3.13;;
70780;SDS011;59514;48.810;2.134;2022-09-06T06:57:31;6.05;;;3.45;;
70780;SDS011;59514;48.810;2.134;2022-09-06T06:59:56;7.07;;;3.17;;
70780;SDS011;59514;48.810;2.134;2022-09-06T07:02:22;6.13;;;3.20;;
70780;SDS011;59514;48.810;2.134;2022-09-06T07:04:47;5.15;;;3.17;;
70780;SDS011;59514;48.810;2.134;2022-09-06T07:07:13;6.40;;;3.00;;
70780;SDS011;59514;48.810;2.134;2022-09-06T07:09:38;6.10;;;3.42;;
70780;SDS011;59514;48.810;2.134;2022-09-06T07:12:03;4.15;;;3.25;;
70780;SDS011;59514;48.810;2.134;2022-09-06T07:14:29;3.63;;;2.83;;
70780;SDS011;59514;48.810;2.134;2022-09-06T07:16:55;5.47;;;3.45;;
70780;SDS011;59514;48.810;2.134;2022-09-06T07:19:23;4.15;;;3.28;;
70780;SDS011;59514;48.810;2.134;2022-09-06T07:21:49;5.82;;;3.10;;
70780;SDS011;59514;48.810;2.134;2022-09-06T07:24:14;5.43;;;2.88;;
70780;SDS011;59514;48.810;2.134;2022-09-06T07:26:40;4.45;;;2.97;;
70780;SDS011;59514;48.810;2.134;2022-09-06T07:29:05;6.22;;;2.88;;
70780;SDS011;59514;48.810;2.134;2022-09-06T07:31:31;4.88;;;3.03;;
70780;SDS011;59514;48.810;2.134;2022-09-06T07:33:57;5.85;;;3.03;;
70780;SDS011;59514;48.810;2.134;2022-09-06T07:36:23;4.43;;;3.10;;
70780;SDS011;59514;48.810;2.134;2022-09-06T07:38:48;5.32;;;2.78;;
70780;SDS011;59514;48.810;2.134;2022-09-06T07:41:15;5.65;;;2.67;;
70780;SDS011;59514;48.810;2.134;2022-09-06T07:43:42;4.32;;;2.55;;
70780;SDS011;59514;48.810;2.134;2022-09-06T07:46:08;6.38;;;3.10;;
70780;SDS011;59514;48.810;2.134;2022-09-06T07:48:37;5.82;;;2.80;;
70780;SDS011;59514;48.810;2.134;2022-09-06T07:51:06;7.20;;;3.28;;
70780;SDS011;59514;48.810;2.134;2022-09-06T07:53:35;4.70;;;2.80;;
70780;SDS011;59514;48.810;2.134;2022-09-06T07:56:03;6.25;;;2.80;;
70780;SDS011;59514;48.810;2.134;2022-09-06T07:58:31;5.13;;;2.70;;
70780;SDS011;59514;48.810;2.134;2022-09-06T08:01:42;3.90;;;2.47;;
70780;SDS011;59514;48.810;2.134;2022-09-06T08:06:26;4.00;;;2.15;;
70780;SDS011;59514;48.810;2.134;2022-09-06T08:08:53;4.10;;;2.10;;
70780;SDS011;59514;48.810;2.134;2022-09-06T08:11:19;7.30;;;2.25;;
70780;SDS011;59514;48.810;2.134;2022-09-06T08:13:50;3.40;;;2.05;;
70780;SDS011;59514;48.810;2.134;2022-09-06T08:16:16;2.35;;;1.92;;
70780;SDS011;59514;48.810;2.134;2022-09-06T08:18:42;3.05;;;1.90;;
70780;SDS011;59514;48.810;2.134;2022-09-06T08:21:12;4.15;;;1.83;;
70780;SDS011;59514;48.810;2.134;2022-09-06T08:23:39;3.17;;;1.83;;
70780;SDS011;59514;48.810;2.134;2022-09-06T08:26:08;4.40;;;1.83;;
70780;SDS011;59514;48.810;2.134;2022-09-06T08:28:35;3.03;;;1.88;;
70780;SDS011;59514;48.810;2.134;2022-09-06T08:33:36;4.40;;;1.83;;
70780;SDS011;59514;48.810;2.134;2022-09-06T08:36:03;4.90;;;1.80;;
70780;SDS011;59514;48.810;2.134;2022-09-06T08:38:29;3.28;;;1.90;;
70780;SDS011;59514;48.810;2.134;2022-09-06T08:41:04;3.78;;;1.75;;
70780;SDS011;59514;48.810;2.134;2022-09-06T08:43:51;2.67;;;1.77;;
70780;SDS011;59514;48.810;2.134;2022-09-06T08:46:21;4.32;;;1.60;;
70780;SDS011;59514;48.810;2.134;2022-09-06T08:48:49;4.50;;;1.75;;
70780;SDS011;59514;48.810;2.134;2022-09-06T08:51:22;3.92;;;1.40;;
70780;SDS011;59514;48.810;2.134;2022-09-06T08:54:07;2.65;;;1.63;;
70780;SDS011;59514;48.810;2.134;2022-09-06T08:59:37;2.83;;;1.75;;
70780;SDS011;59514;48.810;2.134;2022-09-06T09:02:11;3.70;;;1.60;;
70780;SDS011;59514;48.810;2.134;2022-09-06T09:04:52;1.70;;;1.30;;
70780;SDS011;59514;48.810;2.134;2022-09-06T09:10:30;2.53;;;1.40;;
70780;SDS011;59514;48.810;2.134;2022-09-06T09:13:05;3.05;;;1.38;;
70780;SDS011;59514;48.810;2.134;2022-09-06T09:15:33;3.30;;;1.33;;
70780;SDS011;59514;48.810;2.134;2022-09-06T09:18:00;2.10;;;0.90;;
70780;SDS011;59514;48.810;2.134;2022-09-06T09:20:26;1.50;;;1.15;;
70780;SDS011;59514;48.810;2.134;2022-09-06T09:22:51;4.03;;;1.50;;
70780;SDS011;59514;48.810;2.134;2022-09-06T09:25:18;2.83;;;1.05;;
70780;SDS011;59514;48.810;2.134;2022-09-06T09:27:48;3.28;;;1.42;;
70780;SDS011;59514;48.810;2.134;2022-09-06T09:30:22;1.55;;;0.93;;
70780;SDS011;59514;48.810;2.134;2022-09-06T09:32:49;2.58;;;1.35;;
70780;SDS011;59514;48.810;2.134;2022-09-06T09:37:43;2.35;;;0.85;;
70780;SDS011;59514;48.810;2.134;2022-09-06T09:40:13;3.22;;;1.20;;
70780;SDS011;59514;48.810;2.134;2022-09-06T09:42:48;4.07;;;1.38;;
70780;SDS011;59514;48.810;2.134;2022-09-06T09:47:55;3.60;;;1.07;;
70780;SDS011;59514;48.810;2.134;2022-09-06T09:50:28;2.58;;;1.23;;
70780;SDS011;59514;48.810;2.134;2022-09-06T09:52:57;2.00;;;1.13;;
70780;SDS011;59514;48.810;2.134;2022-09-06T09:55:33;2.47;;;1.08;;
70780;SDS011;59514;48.810;2.134;2022-09-06T09:57:58;3.53;;;1.58;;
70780;SDS011;59514;48.810;2.134;2022-09-06T10:00:31;4.18;;;1.30;;
70780;SDS011;59514;48.810;2.134;2022-09-06T10:02:57;3.72;;;1.27;;
70780;SDS011;59514;48.810;2.134;2022-09-06T10:05:22;2.85;;;1.50;;
70780;SDS011;59514;48.810;2.134;2022-09-06T10:10:22;4.90;;;1.58;;
70780;SDS011;59514;48.810;2.134;2022-09-06T10:13:04;3.85;;;1.95;;
70780;SDS011;59514;48.810;2.134;2022-09-06T10:15:34;4.32;;;1.10;;
70780;SDS011;59514;48.810;2.134;2022-09-06T10:18:02;1.88;;;1.20;;
70780;SDS011;59514;48.810;2.134;2022-09-06T10:20:31;1.73;;;1.00;;
70780;SDS011;59514;48.810;2.134;2022-09-06T10:25:37;1.58;;;1.13;;
70780;SDS011;59514;48.810;2.134;2022-09-06T10:30:40;2.00;;;1.33;;
70780;SDS011;59514;48.810;2.134;2022-09-06T10:36:54;2.90;;;1.08;;
70780;SDS011;59514;48.810;2.134;2022-09-06T10:47:53;3.55;;;1.58;;
70780;SDS011;59514;48.810;2.134;2022-09-06T10:50:25;4.13;;;1.60;;
70780;SDS011;59514;48.810;2.134;2022-09-06T10:53:15;3.90;;;1.40;;
70780;SDS011;59514;48.810;2.134;2022-09-06T10:56:12;4.70;;;1.30;;
70780;SDS011;59514;48.810;2.134;2022-09-06T11:01:36;2.88;;;1.73;;
70780;SDS011;59514;48.810;2.134;2022-09-06T11:04:08;3.20;;;2.13;;
70780;SDS011;59514;48.810;2.134;2022-09-06T11:06:43;2.22;;;1.52;;
70780;SDS011;59514;48.810;2.134;2022-09-06T11:09:22;2.75;;;1.45;;
70780;SDS011;59514;48.810;2.134;2022-09-06T11:11:53;3.92;;;1.60;;
70780;SDS011;59514;48.810;2.134;2022-09-06T11:14:23;3.45;;;1.25;;
70780;SDS011;59514;48.810;2.134;2022-09-06T11:17:02;3.08;;;1.25;;
70780;SDS011;59514;48.810;2.134;2022-09-06T11:20:10;3.10;;;1.80;;
70780;SDS011;59514;48.810;2.134;2022-09-06T11:25:58;1.65;;;1.13;;
70780;SDS011;59514;48.810;2.134;2022-09-06T11:31:08;2.55;;;0.90;;
70780;SDS011;59514;48.810;2.134;2022-09-06T11:33:35;4.55;;;1.60;;
70780;SDS011;59514;48.810;2.134;2022-09-06T11:36:14;4.28;;;1.42;;
70780;SDS011;59514;48.810;2.134;2022-09-06T11:38:57;4.63;;;1.30;;
70780;SDS011;59514;48.810;2.134;2022-09-06T11:41:29;2.15;;;1.02;;
70780;SDS011;59514;48.810;2.134;2022-09-06T11:43:56;3.03;;;1.17;;
70780;SDS011;59514;48.810;2.134;2022-09-06T11:49:01;4.63;;;1.10;;
70780;SDS011;59514;48.810;2.134;2022-09-06T11:56:24;2.45;;;1.00;;
70780;SDS011;59514;48.810;2.134;2022-09-06T11:58:58;2.63;;;1.20;;
70780;SDS011;59514;48.810;2.134;2022-09-06T12:01:33;1.95;;;0.80;;
70780;SDS011;59514;48.810;2.134;2022-09-06T12:04:01;1.92;;;0.93;;
70780;SDS011;59514;48.810;2.134;2022-09-06T12:06:29;1.17;;;0.90;;
70780;SDS011;59514;48.810;2.134;2022-09-06T12:08:59;1.95;;;1.25;;
70780;SDS011;59514;48.810;2.134;2022-09-06T12:14:29;2.53;;;0.80;;
70780;SDS011;59514;48.810;2.134;2022-09-06T12:19:46;3.20;;;0.88;;
70780;SDS011;59514;48.810;2.134;2022-09-06T12:27:54;2.60;;;1.00;;
70780;SDS011;59514;48.810;2.134;2022-09-06T12:33:03;2.47;;;0.80;;
70780;SDS011;59514;48.810;2.134;2022-09-06T12:35:31;1.65;;;0.80;;
70780;SDS011;59514;48.810;2.134;2022-09-06T12:38:01;2.33;;;1.00;;
70780;SDS011;59514;48.810;2.134;2022-09-06T12:40:38;2.33;;;0.98;;
70780;SDS011;59514;48.810;2.134;2022-09-06T12:43:12;1.30;;;0.88;;
70780;SDS011;59514;48.810;2.134;2022-09-06T12:45:43;1.63;;;0.70;;
70780;SDS011;59514;48.810;2.134;2022-09-06T12:48:10;1.50;;;0.75;;
70780;SDS011;59514;48.810;2.134;2022-09-06T12:50:58;3.20;;;0.90;;
70780;SDS011;59514;48.810;2.134;2022-09-06T12:53:25;1.70;;;0.80;;
70780;SDS011;59514;48.810;2.134;2022-09-06T12:56:08;2.63;;;0.77;;
70780;SDS011;59514;48.810;2.134;2022-09-06T12:58:38;3.28;;;1.02;;
70780;SDS011;59514;48.810;2.134;2022-09-06T13:03:42;2.50;;;1.10;;
70780;SDS011;59514;48.810;2.134;2022-09-06T13:06:17;2.75;;;1.13;;
70780;SDS011;59514;48.810;2.134;2022-09-06T13:11:17;2.88;;;1.20;;
70780;SDS011;59514;48.810;2.134;2022-09-06T13:14:09;3.25;;;1.33;;
70780;SDS011;59514;48.810;2.134;2022-09-06T13:16:41;2.17;;;1.20;;
70780;SDS011;59514;48.810;2.134;2022-09-06T13:19:31;3.85;;;1.30;;
70780;SDS011;59514;48.810;2.134;2022-09-06T13:22:03;2.58;;;1.25;;
70780;SDS011;59514;48.810;2.134;2022-09-06T13:26:59;2.53;;;1.38;;
70780;SDS011;59514;48.810;2.134;2022-09-06T13:29:29;2.10;;;1.40;;
70780;SDS011;59514;48.810;2.134;2022-09-06T13:31:57;1.17;;;1.00;;
70780;SDS011;59514;48.810;2.134;2022-09-06T13:34:29;2.60;;;1.33;;
70780;SDS011;59514;48.810;2.134;2022-09-06T13:37:05;3.13;;;1.20;;
70780;SDS011;59514;48.810;2.134;2022-09-06T13:39:38;3.13;;;1.45;;
70780;SDS011;59514;48.810;2.134;2022-09-06T13:42:09;4.25;;;1.20;;
70780;SDS011;59514;48.810;2.134;2022-09-06T13:44:47;4.57;;;1.60;;
70780;SDS011;59514;48.810;2.134;2022-09-06T13:47:12;2.45;;;1.50;;
70780;SDS011;59514;48.810;2.134;2022-09-06T13:49:38;2.90;;;1.50;;
70780;SDS011;59514;48.810;2.134;2022-09-06T13:52:03;1.98;;;1.33;;
70780;SDS011;59514;48.810;2.134;2022-09-06T13:54:29;2.72;;;1.30;;
70780;SDS011;59514;48.810;2.134;2022-09-06T13:56:55;2.42;;;1.38;;
70780;SDS011;59514;48.810;2.134;2022-09-06T13:59:21;2.22;;;1.25;;
70780;SDS011;59514;48.810;2.134;2022-09-06T14:01:49;3.63;;;1.33;;
70780;SDS011;59514;48.810;2.134;2022-09-06T14:04:20;5.53;;;1.55;;
70780;SDS011;59514;48.810;2.134;2022-09-06T14:06:46;2.28;;;1.30;;
70780;SDS011;59514;48.810;2.134;2022-09-06T14:09:12;2.95;;;1.38;;
70780;SDS011;59514;48.810;2.134;2022-09-06T14:11:38;2.03;;;1.10;;
70780;SDS011;59514;48.810;2.134;2022-09-06T14:14:03;3.33;;;1.25;;
70780;SDS011;59514;48.810;2.134;2022-09-06T14:16:29;2.53;;;1.45;;
70780;SDS011;59514;48.810;2.134;2022-09-06T14:18:55;3.15;;;1.55;;
70780;SDS011;59514;48.810;2.134;2022-09-06T14:21:21;3.15;;;1.30;;
70780;SDS011;59514;48.810;2.134;2022-09-06T14:23:47;2.10;;;1.40;;
70780;SDS011;59514;48.810;2.134;2022-09-06T14:26:16;5.10;;;2.42;;
70780;SDS011;59514;48.810;2.134;2022-09-06T14:28:43;2.35;;;1.70;;
70780;SDS011;59514;48.810;2.134;2022-09-06T14:31:13;1.92;;;1.30;;
70780;SDS011;59514;48.810;2.134;2022-09-06T14:33:43;2.60;;;1.58;;
70780;SDS011;59514;48.810;2.134;2022-09-06T14:36:10;3.67;;;1.08;;
70780;SDS011;59514;48.810;2.134;2022-09-06T14:38:38;1.40;;;1.13;;
70780;SDS011;59514;48.810;2.134;2022-09-06T14:41:05;2.63;;;1.15;;
70780;SDS011;59514;48.810;2.134;2022-09-06T14:43:31;1.02;;;0.77;;
70780;SDS011;59514;48.810;2.134;2022-09-06T14:46:04;1.10;;;1.00;;
70780;SDS011;59514;48.810;2.134;2022-09-06T14:48:31;1.80;;;1.08;;
70780;SDS011;59514;48.810;2.134;2022-09-06T14:50:57;3.20;;;0.98;;
70780;SDS011;59514;48.810;2.134;2022-09-06T14:53:23;1.90;;;0.80;;
70780;SDS011;59514;48.810;2.134;2022-09-06T14:55:48;1.65;;;0.90;;
70780;SDS011;59514;48.810;2.134;2022-09-06T14:58:14;1.70;;;0.90;;
70780;SDS011;59514;48.810;2.134;2022-09-06T15:00:40;1.20;;;0.82;;
70780;SDS011;59514;48.810;2.134;2022-09-06T15:03:06;3.88;;;1.10;;
70780;SDS011;59514;48.810;2.134;2022-09-06T15:05:32;2.17;;;0.90;;
70780;SDS011;59514;48.810;2.134;2022-09-06T15:07:57;1.65;;;1.08;;
70780;SDS011;59514;48.810;2.134;2022-09-06T15:10:23;2.75;;;0.90;;
70780;SDS011;59514;48.810;2.134;2022-09-06T15:12:50;2.97;;;1.10;;
70780;SDS011;59514;48.810;2.134;2022-09-06T15:15:16;2.20;;;1.08;;
70780;SDS011;59514;48.810;2.134;2022-09-06T15:17:41;2.00;;;1.10;;
70780;SDS011;59514;48.810;2.134;2022-09-06T15:20:06;1.05;;;0.90;;
70780;SDS011;59514;48.810;2.134;2022-09-06T15:22:32;1.58;;;0.80;;
70780;SDS011;59514;48.810;2.134;2022-09-06T15:24:59;1.50;;;0.85;;
70780;SDS011;59514;48.810;2.134;2022-09-06T15:27:25;1.97;;;0.70;;
70780;SDS011;59514;48.810;2.134;2022-09-06T15:29:50;2.78;;;0.82;;
70780;SDS011;59514;48.810;2.134;2022-09-06T15:32:15;1.67;;;0.68;;
70780;SDS011;59514;48.810;2.134;2022-09-06T15:34:40;2.23;;;1.03;;
70780;SDS011;59514;48.810;2.134;2022-09-06T15:37:06;7.45;;;1.63;;
70780;SDS011;59514;48.810;2.134;2022-09-06T15:39:32;3.78;;;0.80;;
70780;SDS011;59514;48.810;2.134;2022-09-06T15:41:57;2.55;;;0.60;;
70780;SDS011;59514;48.810;2.134;2022-09-06T15:44:22;2.65;;;0.90;;
70780;SDS011;59514;48.810;2.134;2022-09-06T15:46:52;1.23;;;0.70;;
70780;SDS011;59514;48.810;2.134;2022-09-06T15:49:25;1.13;;;0.80;;
70780;SDS011;59514;48.810;2.134;2022-09-06T15:51:53;1.63;;;0.80;;
70780;SDS011;59514;48.810;2.134;2022-09-06T15:54:19;1.10;;;0.93;;
70780;SDS011;59514;48.810;2.134;2022-09-06T15:57:05;1.20;;;0.73;;
70780;SDS011;59514;48.810;2.134;2022-09-06T15:59:31;1.17;;;0.82;;
70780;SDS011;59514;48.810;2.134;2022-09-06T16:01:57;4.18;;;1.00;;
70780;SDS011;59514;48.810;2.134;2022-09-06T16:04:22;1.27;;;0.88;;
70780;SDS011;59514;48.810;2.134;2022-09-06T16:06:47;2.45;;;1.08;;
70780;SDS011;59514;48.810;2.134;2022-09-06T16:09:13;3.13;;;1.05;;
70780;SDS011;59514;48.810;2.134;2022-09-06T16:11:38;2.38;;;1.05;;
70780;SDS011;59514;48.810;2.134;2022-09-06T16:14:05;2.47;;;1.15;;
70780;SDS011;59514;48.810;2.134;2022-09-06T16:16:33;1.27;;;1.10;;
70780;SDS011;59514;48.810;2.134;2022-09-06T16:18:59;2.17;;;0.80;;
70780;SDS011;59514;48.810;2.134;2022-09-06T16:21:29;1.83;;;1.05;;
70780;SDS011;59514;48.810;2.134;2022-09-06T16:24:00;0.80;;;0.80;;
70780;SDS011;59514;48.810;2.134;2022-09-06T16:26:27;2.15;;;1.27;;
70780;SDS011;59514;48.810;2.134;2022-09-06T16:28:58;0.90;;;0.80;;
70780;SDS011;59514;48.810;2.134;2022-09-06T16:31:25;3.92;;;1.10;;
70780;SDS011;59514;48.810;2.134;2022-09-06T16:33:51;4.43;;;1.10;;
70780;SDS011;59514;48.810;2.134;2022-09-06T16:36:17;1.60;;;0.85;;
70780;SDS011;59514;48.810;2.134;2022-09-06T16:38:44;3.40;;;1.17;;
70780;SDS011;59514;48.810;2.134;2022-09-06T16:41:24;2.20;;;1.08;;
70780;SDS011;59514;48.810;2.134;2022-09-06T16:43:49;2.80;;;1.20;;
70780;SDS011;59514;48.810;2.134;2022-09-06T16:46:19;2.58;;;1.27;;
70780;SDS011;59514;48.810;2.134;2022-09-06T16:48:50;1.10;;;0.90;;